sensor_id;sensor_type;location;lat;lon;timestamp;P1;durP1;ratioP1;P2;durP2;ratioP2
7398;SDS011;3740;50.700;7.184;2023-05-10T00:00:04;0.77;;;0.77;;
7398;SDS011;3740;50.700;7.184;2023-05-10T00:02:30;0.93;;;0.60;;
7398;SDS011;3740;50.700;7.184;2023-05-10T00:04:56;2.13;;;0.93;;
7398;SDS011;3740;50.700;7.184;2023-05-10T00:07:22;0.70;;;0.67;;
7398;SDS011;3740;50.700;7.184;2023-05-10T00:09:47;1.00;;;0.73;;
7398;SDS011;3740;50.700;7.184;2023-05-10T00:12:13;0.80;;;0.80;;
7398;SDS011;3740;50.700;7.184;2023-05-10T00:14:38;1.30;;;0.90;;
7398;SDS011;3740;50.700;7.184;2023-05-10T00:17:04;0.80;;;0.80;;
7398;SDS011;3740;50.700;7.184;2023-05-10T00:19:29;1.17;;;1.07;;
7398;SDS011;3740;50.700;7.184;2023-05-10T00:21:55;1.23;;;1.13;;
7398;SDS011;3740;50.700;7.184;2023-05-10T00:24:21;0.90;;;0.83;;
7398;SDS011;3740;50.700;7.184;2023-05-10T00:26:46;1.10;;;0.80;;
7398;SDS011;3740;50.700;7.184;2023-05-10T00:29:12;0.80;;;0.80;;
7398;SDS011;3740;50.700;7.184;2023-05-10T00:31:37;1.17;;;0.90;;
7398;SDS011;3740;50.700;7.184;2023-05-10T00:34:03;1.40;;;0.83;;
7398;SDS011;3740;50.700;7.184;2023-05-10T00:36:28;1.13;;;1.13;;
7398;SDS011;3740;50.700;7.184;2023-05-10T00:38:54;2.10;;;1.00;;
7398;SDS011;3740;50.700;7.184;2023-05-10T00:41:19;1.27;;;1.00;;
7398;SDS011;3740;50.700;7.184;2023-05-10T00:43:46;1.83;;;1.20;;
7398;SDS011;3740;50.700;7.184;2023-05-10T00:46:11;1.23;;;1.17;;
7398;SDS011;3740;50.700;7.184;2023-05-10T00:48:39;1.70;;;1.20;;
7398;SDS011;3740;50.700;7.184;2023-05-10T00:51:04;0.90;;;0.90;;
7398;SDS011;3740;50.700;7.184;2023-05-10T00:53:31;1.20;;;0.87;;
7398;SDS011;3740;50.700;7.184;2023-05-10T00:55:57;1.90;;;1.00;;
7398;SDS011;3740;50.700;7.184;2023-05-10T00:58:24;1.60;;;0.90;;
7398;SDS011;3740;50.700;7.184;2023-05-10T01:00:53;1.47;;;0.70;;
7398;SDS011;3740;50.700;7.184;2023-05-10T01:03:21;1.53;;;0.80;;
7398;SDS011;3740;50.700;7.184;2023-05-10T01:05:47;0.93;;;0.93;;
7398;SDS011;3740;50.700;7.184;2023-05-10T01:08:13;0.70;;;0.70;;
7398;SDS011;3740;50.700;7.184;2023-05-10T01:10:40;0.63;;;0.63;;
7398;SDS011;3740;50.700;7.184;2023-05-10T01:13:06;1.00;;;1.00;;
7398;SDS011;3740;50.700;7.184;2023-05-10T01:15:32;1.00;;;0.83;;
7398;SDS011;3740;50.700;7.184;2023-05-10T01:17:58;1.50;;;0.83;;
7398;SDS011;3740;50.700;7.184;2023-05-10T01:20:25;0.90;;;0.90;;
7398;SDS011;3740;50.700;7.184;2023-05-10T01:28:58;1.20;;;1.10;;
7398;SDS011;3740;50.700;7.184;2023-05-10T01:34:42;1.60;;;1.40;;
7398;SDS011;3740;50.700;7.184;2023-05-10T01:37:20;1.30;;;1.20;;
7398;SDS011;3740;50.700;7.184;2023-05-10T01:39:53;0.90;;;0.90;;
7398;SDS011;3740;50.700;7.184;2023-05-10T01:42:25;1.20;;;1.10;;
7398;SDS011;3740;50.700;7.184;2023-05-10T01:47:46;0.93;;;0.80;;
7398;SDS011;3740;50.700;7.184;2023-05-10T01:50:22;0.83;;;0.83;;
7398;SDS011;3740;50.700;7.184;2023-05-10T01:52:56;1.13;;;1.03;;
7398;SDS011;3740;50.700;7.184;2023-05-10T01:55:25;1.20;;;1.10;;
7398;SDS011;3740;50.700;7.184;2023-05-10T01:57:56;0.97;;;0.90;;
7398;SDS011;3740;50.700;7.184;2023-05-10T02:00:27;1.30;;;1.20;;
7398;SDS011;3740;50.700;7.184;2023-05-10T02:02:53;0.90;;;0.90;;
7398;SDS011;3740;50.700;7.184;2023-05-10T02:05:20;1.40;;;1.10;;
7398;SDS011;3740;50.700;7.184;2023-05-10T02:07:47;1.13;;;0.80;;
7398;SDS011;3740;50.700;7.184;2023-05-10T02:10:15;0.93;;;0.90;;
7398;SDS011;3740;50.700;7.184;2023-05-10T02:12:41;1.43;;;1.33;;
7398;SDS011;3740;50.700;7.184;2023-05-10T02:15:10;0.90;;;0.83;;
7398;SDS011;3740;50.700;7.184;2023-05-10T02:17:37;1.63;;;1.17;;
7398;SDS011;3740;50.700;7.184;2023-05-10T02:20:05;1.50;;;1.40;;
7398;SDS011;3740;50.700;7.184;2023-05-10T02:22:32;2.10;;;1.20;;
7398;SDS011;3740;50.700;7.184;2023-05-10T02:25:00;1.40;;;1.30;;
7398;SDS011;3740;50.700;7.184;2023-05-10T02:27:27;1.10;;;1.00;;
7398;SDS011;3740;50.700;7.184;2023-05-10T02:29:54;1.33;;;1.30;;
7398;SDS011;3740;50.700;7.184;2023-05-10T02:32:21;1.47;;;1.37;;
7398;SDS011;3740;50.700;7.184;2023-05-10T02:34:47;1.13;;;1.03;;
7398;SDS011;3740;50.700;7.184;2023-05-10T02:37:17;1.30;;;1.20;;
7398;SDS011;3740;50.700;7.184;2023-05-10T02:39:44;1.23;;;1.10;;
7398;SDS011;3740;50.700;7.184;2023-05-10T02:42:18;1.20;;;1.10;;
7398;SDS011;3740;50.700;7.184;2023-05-10T02:44:47;0.90;;;0.90;;
7398;SDS011;3740;50.700;7.184;2023-05-10T02:47:15;2.23;;;1.27;;
7398;SDS011;3740;50.700;7.184;2023-05-10T02:49:41;1.20;;;1.20;;
7398;SDS011;3740;50.700;7.184;2023-05-10T02:52:07;1.17;;;1.07;;
7398;SDS011;3740;50.700;7.184;2023-05-10T02:54:35;1.07;;;1.07;;
7398;SDS011;3740;50.700;7.184;2023-05-10T02:57:08;1.37;;;1.27;;
7398;SDS011;3740;50.700;7.184;2023-05-10T02:59:39;1.07;;;1.07;;
7398;SDS011;3740;50.700;7.184;2023-05-10T03:02:07;2.60;;;1.50;;
7398;SDS011;3740;50.700;7.184;2023-05-10T03:04:34;1.50;;;1.40;;
7398;SDS011;3740;50.700;7.184;2023-05-10T03:06:59;2.00;;;1.30;;
7398;SDS011;3740;50.700;7.184;2023-05-10T03:09:25;1.40;;;1.30;;
7398;SDS011;3740;50.700;7.184;2023-05-10T03:14:57;1.33;;;1.27;;
7398;SDS011;3740;50.700;7.184;2023-05-10T03:17:36;2.40;;;1.63;;
7398;SDS011;3740;50.700;7.184;2023-05-10T03:20:29;1.83;;;1.30;;
7398;SDS011;3740;50.700;7.184;2023-05-10T03:23:20;1.53;;;1.43;;
7398;SDS011;3740;50.700;7.184;2023-05-10T03:25:51;1.77;;;1.67;;
7398;SDS011;3740;50.700;7.184;2023-05-10T03:28:18;3.00;;;1.70;;
7398;SDS011;3740;50.700;7.184;2023-05-10T03:30:45;1.20;;;1.20;;
7398;SDS011;3740;50.700;7.184;2023-05-10T03:33:11;1.80;;;1.70;;
7398;SDS011;3740;50.700;7.184;2023-05-10T03:35:38;2.53;;;1.50;;
7398;SDS011;3740;50.700;7.184;2023-05-10T03:38:03;2.10;;;1.90;;
7398;SDS011;3740;50.700;7.184;2023-05-10T03:40:29;2.10;;;2.00;;
7398;SDS011;3740;50.700;7.184;2023-05-10T03:42:56;2.37;;;2.17;;
7398;SDS011;3740;50.700;7.184;2023-05-10T03:45:25;2.70;;;2.43;;
7398;SDS011;3740;50.700;7.184;2023-05-10T03:47:51;2.70;;;2.50;;
7398;SDS011;3740;50.700;7.184;2023-05-10T03:50:16;2.40;;;2.20;;
7398;SDS011;3740;50.700;7.184;2023-05-10T03:52:43;2.93;;;2.27;;
7398;SDS011;3740;50.700;7.184;2023-05-10T03:55:09;2.23;;;2.03;;
7398;SDS011;3740;50.700;7.184;2023-05-10T03:57:34;2.00;;;1.80;;
7398;SDS011;3740;50.700;7.184;2023-05-10T04:00:00;2.30;;;2.10;;
7398;SDS011;3740;50.700;7.184;2023-05-10T04:02:26;3.73;;;2.97;;
7398;SDS011;3740;50.700;7.184;2023-05-10T04:04:51;4.90;;;3.00;;
7398;SDS011;3740;50.700;7.184;2023-05-10T04:07:17;3.07;;;2.77;;
7398;SDS011;3740;50.700;7.184;2023-05-10T04:09:43;2.80;;;2.60;;
7398;SDS011;3740;50.700;7.184;2023-05-10T04:12:08;3.23;;;2.93;;
7398;SDS011;3740;50.700;7.184;2023-05-10T04:14:34;3.07;;;2.87;;
7398;SDS011;3740;50.700;7.184;2023-05-10T04:17:00;2.93;;;2.73;;
7398;SDS011;3740;50.700;7.184;2023-05-10T04:19:29;3.30;;;3.10;;
7398;SDS011;3740;50.700;7.184;2023-05-10T04:21:55;2.97;;;2.77;;
7398;SDS011;3740;50.700;7.184;2023-05-10T04:24:20;3.70;;;3.30;;
7398;SDS011;3740;50.700;7.184;2023-05-10T04:26:46;3.83;;;3.10;;
7398;SDS011;3740;50.700;7.184;2023-05-10T04:29:11;3.30;;;3.00;;
7398;SDS011;3740;50.700;7.184;2023-05-10T04:31:37;3.27;;;3.07;;
7398;SDS011;3740;50.700;7.184;2023-05-10T04:34:03;3.77;;;3.40;;
7398;SDS011;3740;50.700;7.184;2023-05-10T04:36:28;4.00;;;3.60;;
7398;SDS011;3740;50.700;7.184;2023-05-10T04:38:54;3.70;;;3.40;;
7398;SDS011;3740;50.700;7.184;2023-05-10T04:41:20;5.03;;;4.43;;
7398;SDS011;3740;50.700;7.184;2023-05-10T04:43:45;4.70;;;4.30;;
7398;SDS011;3740;50.700;7.184;2023-05-10T04:46:11;4.83;;;4.43;;
7398;SDS011;3740;50.700;7.184;2023-05-10T04:48:37;4.73;;;4.33;;
7398;SDS011;3740;50.700;7.184;2023-05-10T04:51:02;5.20;;;4.30;;
7398;SDS011;3740;50.700;7.184;2023-05-10T04:53:28;5.17;;;4.67;;
7398;SDS011;3740;50.700;7.184;2023-05-10T04:55:54;4.80;;;4.40;;
7398;SDS011;3740;50.700;7.184;2023-05-10T04:58:20;5.70;;;5.20;;
7398;SDS011;3740;50.700;7.184;2023-05-10T05:00:46;5.87;;;5.30;;
7398;SDS011;3740;50.700;7.184;2023-05-10T05:03:11;5.37;;;4.87;;
7398;SDS011;3740;50.700;7.184;2023-05-10T05:05:37;6.73;;;6.00;;
7398;SDS011;3740;50.700;7.184;2023-05-10T05:08:03;6.43;;;5.83;;
7398;SDS011;3740;50.700;7.184;2023-05-10T05:10:28;7.00;;;6.10;;
7398;SDS011;3740;50.700;7.184;2023-05-10T05:12:54;6.63;;;6.07;;
7398;SDS011;3740;50.700;7.184;2023-05-10T05:15:20;6.93;;;6.33;;
7398;SDS011;3740;50.700;7.184;2023-05-10T05:17:45;6.30;;;5.70;;
7398;SDS011;3740;50.700;7.184;2023-05-10T05:20:11;7.07;;;6.27;;
7398;SDS011;3740;50.700;7.184;2023-05-10T05:22:38;6.27;;;5.77;;
7398;SDS011;3740;50.700;7.184;2023-05-10T05:25:03;6.43;;;5.87;;
7398;SDS011;3740;50.700;7.184;2023-05-10T05:27:29;6.13;;;5.53;;
7398;SDS011;3740;50.700;7.184;2023-05-10T05:29:56;6.33;;;5.80;;
7398;SDS011;3740;50.700;7.184;2023-05-10T05:32:22;6.07;;;5.57;;
7398;SDS011;3740;50.700;7.184;2023-05-10T05:34:48;6.73;;;6.13;;
7398;SDS011;3740;50.700;7.184;2023-05-10T05:37:15;7.17;;;6.27;;
7398;SDS011;3740;50.700;7.184;2023-05-10T05:39:46;6.13;;;5.60;;
7398;SDS011;3740;50.700;7.184;2023-05-10T05:42:12;6.13;;;5.63;;
7398;SDS011;3740;50.700;7.184;2023-05-10T05:44:38;7.27;;;6.03;;
7398;SDS011;3740;50.700;7.184;2023-05-10T05:47:05;6.87;;;6.17;;
7398;SDS011;3740;50.700;7.184;2023-05-10T05:49:30;7.17;;;6.50;;
7398;SDS011;3740;50.700;7.184;2023-05-10T05:51:59;6.60;;;5.73;;
7398;SDS011;3740;50.700;7.184;2023-05-10T05:54:25;6.77;;;6.07;;
7398;SDS011;3740;50.700;7.184;2023-05-10T05:56:53;5.10;;;4.70;;
7398;SDS011;3740;50.700;7.184;2023-05-10T05:59:23;5.60;;;5.13;;
7398;SDS011;3740;50.700;7.184;2023-05-10T06:01:49;7.03;;;5.87;;
7398;SDS011;3740;50.700;7.184;2023-05-10T06:04:15;6.40;;;5.80;;
7398;SDS011;3740;50.700;7.184;2023-05-10T06:06:40;7.83;;;5.97;;
7398;SDS011;3740;50.700;7.184;2023-05-10T06:09:07;6.33;;;5.73;;
7398;SDS011;3740;50.700;7.184;2023-05-10T06:11:33;6.27;;;5.13;;
7398;SDS011;3740;50.700;7.184;2023-05-10T06:13:59;6.40;;;5.30;;
7398;SDS011;3740;50.700;7.184;2023-05-10T06:16:25;5.23;;;4.83;;
7398;SDS011;3740;50.700;7.184;2023-05-10T06:18:51;6.17;;;5.10;;
7398;SDS011;3740;50.700;7.184;2023-05-10T06:21:16;5.87;;;5.37;;
7398;SDS011;3740;50.700;7.184;2023-05-10T06:23:42;6.53;;;5.40;;
7398;SDS011;3740;50.700;7.184;2023-05-10T06:26:07;5.40;;;4.90;;
7398;SDS011;3740;50.700;7.184;2023-05-10T06:28:33;6.37;;;5.00;;
7398;SDS011;3740;50.700;7.184;2023-05-10T06:30:59;5.10;;;4.63;;
7398;SDS011;3740;50.700;7.184;2023-05-10T06:33:25;4.93;;;4.53;;
7398;SDS011;3740;50.700;7.184;2023-05-10T06:35:50;5.83;;;4.30;;
7398;SDS011;3740;50.700;7.184;2023-05-10T06:38:16;4.27;;;3.87;;
7398;SDS011;3740;50.700;7.184;2023-05-10T06:40:42;5.13;;;4.63;;
7398;SDS011;3740;50.700;7.184;2023-05-10T06:43:08;4.80;;;4.30;;
7398;SDS011;3740;50.700;7.184;2023-05-10T06:45:33;5.20;;;4.80;;
7398;SDS011;3740;50.700;7.184;2023-05-10T06:47:59;5.00;;;4.50;;
7398;SDS011;3740;50.700;7.184;2023-05-10T06:50:25;4.80;;;4.40;;
7398;SDS011;3740;50.700;7.184;2023-05-10T06:52:50;4.90;;;4.30;;
7398;SDS011;3740;50.700;7.184;2023-05-10T06:55:16;5.13;;;4.63;;
7398;SDS011;3740;50.700;7.184;2023-05-10T06:57:42;5.00;;;4.60;;
7398;SDS011;3740;50.700;7.184;2023-05-10T07:00:07;4.83;;;4.43;;
7398;SDS011;3740;50.700;7.184;2023-05-10T07:02:34;5.10;;;4.70;;
7398;SDS011;3740;50.700;7.184;2023-05-10T07:05:00;6.63;;;5.10;;
7398;SDS011;3740;50.700;7.184;2023-05-10T07:07:26;5.37;;;4.87;;
7398;SDS011;3740;50.700;7.184;2023-05-10T07:09:51;5.77;;;4.50;;
7398;SDS011;3740;50.700;7.184;2023-05-10T07:12:17;5.47;;;4.90;;
7398;SDS011;3740;50.700;7.184;2023-05-10T07:14:42;7.23;;;5.77;;
7398;SDS011;3740;50.700;7.184;2023-05-10T07:17:08;4.90;;;4.50;;
7398;SDS011;3740;50.700;7.184;2023-05-10T07:19:34;5.27;;;4.77;;
7398;SDS011;3740;50.700;7.184;2023-05-10T07:22:00;4.70;;;4.30;;
7398;SDS011;3740;50.700;7.184;2023-05-10T07:24:25;5.10;;;4.30;;
7398;SDS011;3740;50.700;7.184;2023-05-10T07:26:51;4.20;;;3.60;;
7398;SDS011;3740;50.700;7.184;2023-05-10T07:29:17;4.57;;;3.97;;
7398;SDS011;3740;50.700;7.184;2023-05-10T07:31:42;3.97;;;3.47;;
7398;SDS011;3740;50.700;7.184;2023-05-10T07:34:08;4.33;;;3.93;;
7398;SDS011;3740;50.700;7.184;2023-05-10T07:36:34;5.17;;;4.13;;
7398;SDS011;3740;50.700;7.184;2023-05-10T07:39:00;4.13;;;3.70;;
7398;SDS011;3740;50.700;7.184;2023-05-10T07:41:25;3.40;;;3.10;;
7398;SDS011;3740;50.700;7.184;2023-05-10T07:43:52;4.97;;;3.30;;
7398;SDS011;3740;50.700;7.184;2023-05-10T07:46:17;4.07;;;3.63;;
7398;SDS011;3740;50.700;7.184;2023-05-10T07:48:44;4.83;;;4.27;;
7398;SDS011;3740;50.700;7.184;2023-05-10T07:51:10;6.07;;;4.63;;
7398;SDS011;3740;50.700;7.184;2023-05-10T07:53:36;4.90;;;4.40;;
7398;SDS011;3740;50.700;7.184;2023-05-10T07:56:19;5.23;;;4.73;;
7398;SDS011;3740;50.700;7.184;2023-05-10T07:58:46;5.80;;;4.50;;
7398;SDS011;3740;50.700;7.184;2023-05-10T08:01:12;5.37;;;4.60;;
7398;SDS011;3740;50.700;7.184;2023-05-10T08:03:37;6.40;;;4.40;;
7398;SDS011;3740;50.700;7.184;2023-05-10T08:06:03;4.77;;;4.20;;
7398;SDS011;3740;50.700;7.184;2023-05-10T08:08:29;4.47;;;4.13;;
7398;SDS011;3740;50.700;7.184;2023-05-10T08:10:54;4.37;;;3.97;;
7398;SDS011;3740;50.700;7.184;2023-05-10T08:13:23;4.50;;;4.10;;
7398;SDS011;3740;50.700;7.184;2023-05-10T08:15:48;4.27;;;3.97;;
7398;SDS011;3740;50.700;7.184;2023-05-10T08:18:14;4.70;;;4.23;;
7398;SDS011;3740;50.700;7.184;2023-05-10T08:20:39;5.97;;;4.50;;
7398;SDS011;3740;50.700;7.184;2023-05-10T08:23:05;6.00;;;4.80;;
7398;SDS011;3740;50.700;7.184;2023-05-10T08:25:31;4.73;;;4.33;;
7398;SDS011;3740;50.700;7.184;2023-05-10T08:27:56;3.97;;;3.67;;
7398;SDS011;3740;50.700;7.184;2023-05-10T08:30:22;5.00;;;4.50;;
7398;SDS011;3740;50.700;7.184;2023-05-10T08:32:47;4.80;;;4.03;;
7398;SDS011;3740;50.700;7.184;2023-05-10T08:35:13;3.80;;;3.38;;
7398;SDS011;3740;50.700;7.184;2023-05-10T08:37:39;6.03;;;4.40;;
7398;SDS011;3740;50.700;7.184;2023-05-10T08:40:05;4.10;;;3.80;;
7398;SDS011;3740;50.700;7.184;2023-05-10T08:42:31;4.37;;;3.83;;
7398;SDS011;3740;50.700;7.184;2023-05-10T08:45:01;3.80;;;3.47;;
7398;SDS011;3740;50.700;7.184;2023-05-10T08:47:28;4.07;;;3.60;;
7398;SDS011;3740;50.700;7.184;2023-05-10T08:49:54;4.33;;;3.90;;
7398;SDS011;3740;50.700;7.184;2023-05-10T08:52:22;3.83;;;3.53;;
7398;SDS011;3740;50.700;7.184;2023-05-10T08:54:49;4.20;;;3.80;;
7398;SDS011;3740;50.700;7.184;2023-05-10T08:57:15;5.10;;;4.07;;
7398;SDS011;3740;50.700;7.184;2023-05-10T08:59:41;4.53;;;4.00;;
7398;SDS011;3740;50.700;7.184;2023-05-10T09:02:06;4.20;;;3.90;;
7398;SDS011;3740;50.700;7.184;2023-05-10T09:04:35;4.13;;;3.67;;
7398;SDS011;3740;50.700;7.184;2023-05-10T09:07:00;3.70;;;3.40;;
7398;SDS011;3740;50.700;7.184;2023-05-10T09:09:26;3.40;;;3.10;;
7398;SDS011;3740;50.700;7.184;2023-05-10T09:11:52;3.40;;;3.07;;
7398;SDS011;3740;50.700;7.184;2023-05-10T09:14:19;2.27;;;1.87;;
7398;SDS011;3740;50.700;7.184;2023-05-10T09:16:45;1.70;;;1.60;;
7398;SDS011;3740;50.700;7.184;2023-05-10T09:19:11;1.97;;;1.73;;
7398;SDS011;3740;50.700;7.184;2023-05-10T09:21:37;2.27;;;1.67;;
7398;SDS011;3740;50.700;7.184;2023-05-10T09:24:06;2.77;;;1.47;;
7398;SDS011;3740;50.700;7.184;2023-05-10T09:26:33;2.97;;;1.77;;
7398;SDS011;3740;50.700;7.184;2023-05-10T09:29:00;1.40;;;1.30;;
7398;SDS011;3740;50.700;7.184;2023-05-10T09:31:44;2.23;;;1.30;;
7398;SDS011;3740;50.700;7.184;2023-05-10T09:34:15;2.10;;;1.90;;
7398;SDS011;3740;50.700;7.184;2023-05-10T09:36:55;1.90;;;1.77;;
7398;SDS011;3740;50.700;7.184;2023-05-10T09:39:35;1.47;;;1.37;;
7398;SDS011;3740;50.700;7.184;2023-05-10T09:42:02;2.57;;;1.50;;
7398;SDS011;3740;50.700;7.184;2023-05-10T09:44:32;1.40;;;1.30;;
7398;SDS011;3740;50.700;7.184;2023-05-10T09:47:00;1.07;;;1.00;;
7398;SDS011;3740;50.700;7.184;2023-05-10T09:49:28;1.80;;;1.70;;
7398;SDS011;3740;50.700;7.184;2023-05-10T09:52:04;1.87;;;1.50;;
7398;SDS011;3740;50.700;7.184;2023-05-10T09:54:31;1.70;;;1.60;;
7398;SDS011;3740;50.700;7.184;2023-05-10T09:56:57;1.30;;;1.00;;
7398;SDS011;3740;50.700;7.184;2023-05-10T09:59:24;1.50;;;1.27;;
7398;SDS011;3740;50.700;7.184;2023-05-10T10:01:52;1.90;;;1.70;;
7398;SDS011;3740;50.700;7.184;2023-05-10T10:04:21;1.33;;;1.23;;
7398;SDS011;3740;50.700;7.184;2023-05-10T10:06:47;1.53;;;1.37;;
7398;SDS011;3740;50.700;7.184;2023-05-10T10:09:24;1.23;;;1.20;;
7398;SDS011;3740;50.700;7.184;2023-05-10T10:11:50;1.63;;;1.52;;
7398;SDS011;3740;50.700;7.184;2023-05-10T10:14:16;1.35;;;1.25;;
7398;SDS011;3740;50.700;7.184;2023-05-10T10:16:43;2.17;;;1.35;;
7398;SDS011;3740;50.700;7.184;2023-05-10T10:19:09;2.08;;;1.05;;
7398;SDS011;3740;50.700;7.184;2023-05-10T10:21:35;1.70;;;1.50;;
7398;SDS011;3740;50.700;7.184;2023-05-10T10:24:01;1.92;;;1.38;;
7398;SDS011;3740;50.700;7.184;2023-05-10T10:26:26;2.35;;;1.40;;
7398;SDS011;3740;50.700;7.184;2023-05-10T10:29:09;1.40;;;1.30;;
7398;SDS011;3740;50.700;7.184;2023-05-10T10:31:51;1.23;;;1.13;;
7398;SDS011;3740;50.700;7.184;2023-05-10T10:34:27;1.70;;;1.60;;
7398;SDS011;3740;50.700;7.184;2023-05-10T10:36:54;1.57;;;1.47;;
7398;SDS011;3740;50.700;7.184;2023-05-10T10:39:21;1.60;;;1.47;;
7398;SDS011;3740;50.700;7.184;2023-05-10T10:41:51;1.77;;;1.67;;
7398;SDS011;3740;50.700;7.184;2023-05-10T10:49:27;2.43;;;2.30;;
7398;SDS011;3740;50.700;7.184;2023-05-10T10:54:52;2.97;;;2.47;;
7398;SDS011;3740;50.700;7.184;2023-05-10T10:57:22;2.40;;;2.27;;
7398;SDS011;3740;50.700;7.184;2023-05-10T10:59:47;3.00;;;2.80;;
7398;SDS011;3740;50.700;7.184;2023-05-10T11:08:08;2.78;;;2.58;;
7398;SDS011;3740;50.700;7.184;2023-05-10T11:10:37;3.75;;;3.40;;
7398;SDS011;3740;50.700;7.184;2023-05-10T11:13:07;3.40;;;3.10;;
7398;SDS011;3740;50.700;7.184;2023-05-10T11:15:38;2.85;;;2.63;;
7398;SDS011;3740;50.700;7.184;2023-05-10T11:18:23;3.10;;;2.80;;
7398;SDS011;3740;50.700;7.184;2023-05-10T11:23:28;3.20;;;2.90;;
7398;SDS011;3740;50.700;7.184;2023-05-10T11:25:56;2.88;;;2.67;;
7398;SDS011;3740;50.700;7.184;2023-05-10T11:28:22;2.42;;;2.22;;
7398;SDS011;3740;50.700;7.184;2023-05-10T11:30:48;2.72;;;2.53;;
7398;SDS011;3740;50.700;7.184;2023-05-10T11:33:17;2.50;;;2.40;;
7398;SDS011;3740;50.700;7.184;2023-05-10T11:35:44;1.60;;;1.50;;
7398;SDS011;3740;50.700;7.184;2023-05-10T11:38:10;1.50;;;1.40;;
7398;SDS011;3740;50.700;7.184;2023-05-10T11:40:37;1.38;;;1.10;;
7398;SDS011;3740;50.700;7.184;2023-05-10T11:43:04;1.02;;;1.02;;
7398;SDS011;3740;50.700;7.184;2023-05-10T11:45:33;1.95;;;0.95;;
7398;SDS011;3740;50.700;7.184;2023-05-10T11:47:59;0.70;;;0.70;;
7398;SDS011;3740;50.700;7.184;2023-05-10T11:50:26;2.08;;;1.00;;
7398;SDS011;3740;50.700;7.184;2023-05-10T11:52:52;1.27;;;1.10;;
7398;SDS011;3740;50.700;7.184;2023-05-10T11:55:18;1.25;;;1.25;;
7398;SDS011;3740;50.700;7.184;2023-05-10T11:57:44;0.80;;;0.80;;
7398;SDS011;3740;50.700;7.184;2023-05-10T12:00:11;1.15;;;0.70;;
7398;SDS011;3740;50.700;7.184;2023-05-10T12:02:37;1.13;;;0.93;;
7398;SDS011;3740;50.700;7.184;2023-05-10T12:05:04;1.08;;;1.00;;
7398;SDS011;3740;50.700;7.184;2023-05-10T12:07:30;0.98;;;0.98;;
7398;SDS011;3740;50.700;7.184;2023-05-10T12:10:06;1.30;;;1.20;;
7398;SDS011;3740;50.700;7.184;2023-05-10T12:12:46;1.30;;;1.20;;
7398;SDS011;3740;50.700;7.184;2023-05-10T12:15:18;1.50;;;1.40;;
7398;SDS011;3740;50.700;7.184;2023-05-10T12:17:46;1.17;;;1.02;;
7398;SDS011;3740;50.700;7.184;2023-05-10T12:20:16;1.00;;;1.00;;
7398;SDS011;3740;50.700;7.184;2023-05-10T12:22:44;1.10;;;1.10;;
7398;SDS011;3740;50.700;7.184;2023-05-10T12:25:21;1.30;;;1.30;;
7398;SDS011;3740;50.700;7.184;2023-05-10T12:27:57;1.17;;;1.08;;
7398;SDS011;3740;50.700;7.184;2023-05-10T12:30:26;1.40;;;1.10;;
7398;SDS011;3740;50.700;7.184;2023-05-10T12:32:53;1.40;;;1.30;;
7398;SDS011;3740;50.700;7.184;2023-05-10T12:35:19;1.00;;;1.00;;
7398;SDS011;3740;50.700;7.184;2023-05-10T12:37:49;1.30;;;1.30;;
7398;SDS011;3740;50.700;7.184;2023-05-10T12:40:16;1.77;;;1.67;;
7398;SDS011;3740;50.700;7.184;2023-05-10T12:42:41;3.17;;;1.50;;
7398;SDS011;3740;50.700;7.184;2023-05-10T12:45:08;1.20;;;1.10;;
7398;SDS011;3740;50.700;7.184;2023-05-10T12:47:34;2.07;;;1.63;;
7398;SDS011;3740;50.700;7.184;2023-05-10T12:50:00;1.63;;;1.57;;
7398;SDS011;3740;50.700;7.184;2023-05-10T12:52:27;1.40;;;1.40;;
7398;SDS011;3740;50.700;7.184;2023-05-10T12:54:55;2.03;;;1.93;;
7398;SDS011;3740;50.700;7.184;2023-05-10T12:57:20;2.30;;;2.20;;
7398;SDS011;3740;50.700;7.184;2023-05-10T12:59:46;2.17;;;2.07;;
7398;SDS011;3740;50.700;7.184;2023-05-10T13:02:12;2.17;;;2.03;;
7398;SDS011;3740;50.700;7.184;2023-05-10T13:04:39;2.70;;;2.50;;
7398;SDS011;3740;50.700;7.184;2023-05-10T13:07:08;2.17;;;2.08;;
7398;SDS011;3740;50.700;7.184;2023-05-10T13:09:33;2.58;;;2.30;;
7398;SDS011;3740;50.700;7.184;2023-05-10T13:11:59;1.80;;;1.70;;
7398;SDS011;3740;50.700;7.184;2023-05-10T13:14:25;1.73;;;1.60;;
7398;SDS011;3740;50.700;7.184;2023-05-10T13:16:51;1.60;;;1.60;;
7398;SDS011;3740;50.700;7.184;2023-05-10T13:19:16;1.55;;;1.50;;
7398;SDS011;3740;50.700;7.184;2023-05-10T13:21:43;1.73;;;1.63;;
7398;SDS011;3740;50.700;7.184;2023-05-10T13:24:09;1.80;;;1.70;;
7398;SDS011;3740;50.700;7.184;2023-05-10T13:26:35;1.55;;;1.45;;
7398;SDS011;3740;50.700;7.184;2023-05-10T13:29:01;1.60;;;1.50;;
7398;SDS011;3740;50.700;7.184;2023-05-10T13:31:27;1.70;;;1.60;;
7398;SDS011;3740;50.700;7.184;2023-05-10T13:33:53;1.58;;;1.48;;
7398;SDS011;3740;50.700;7.184;2023-05-10T13:36:18;1.20;;;1.20;;
7398;SDS011;3740;50.700;7.184;2023-05-10T13:38:44;1.27;;;1.27;;
7398;SDS011;3740;50.700;7.184;2023-05-10T13:41:09;1.55;;;1.45;;
7398;SDS011;3740;50.700;7.184;2023-05-10T13:43:35;1.30;;;1.30;;
7398;SDS011;3740;50.700;7.184;2023-05-10T13:46:01;1.40;;;1.40;;
7398;SDS011;3740;50.700;7.184;2023-05-10T13:48:27;1.95;;;1.30;;
7398;SDS011;3740;50.700;7.184;2023-05-10T13:50:53;1.70;;;1.60;;
7398;SDS011;3740;50.700;7.184;2023-05-10T13:53:19;1.35;;;1.17;;
7398;SDS011;3740;50.700;7.184;2023-05-10T13:55:44;1.42;;;1.27;;
7398;SDS011;3740;50.700;7.184;2023-05-10T13:58:10;1.10;;;1.10;;
7398;SDS011;3740;50.700;7.184;2023-05-10T14:00:35;1.70;;;1.25;;
7398;SDS011;3740;50.700;7.184;2023-05-10T14:03:01;1.50;;;1.48;;
7398;SDS011;3740;50.700;7.184;2023-05-10T14:05:27;1.30;;;1.30;;
7398;SDS011;3740;50.700;7.184;2023-05-10T14:07:52;1.92;;;1.75;;
7398;SDS011;3740;50.700;7.184;2023-05-10T14:10:18;2.00;;;1.90;;
7398;SDS011;3740;50.700;7.184;2023-05-10T14:12:44;1.70;;;1.60;;
7398;SDS011;3740;50.700;7.184;2023-05-10T14:15:10;2.22;;;2.13;;
7398;SDS011;3740;50.700;7.184;2023-05-10T14:17:36;6.00;;;5.50;;
7398;SDS011;3740;50.700;7.184;2023-05-10T14:20:02;3.20;;;2.90;;
7398;SDS011;3740;50.700;7.184;2023-05-10T14:22:28;4.67;;;3.20;;
7398;SDS011;3740;50.700;7.184;2023-05-10T14:24:54;3.03;;;2.50;;
7398;SDS011;3740;50.700;7.184;2023-05-10T14:27:20;2.77;;;2.50;;
7398;SDS011;3740;50.700;7.184;2023-05-10T14:29:46;4.13;;;3.07;;
7398;SDS011;3740;50.700;7.184;2023-05-10T14:32:12;4.47;;;3.40;;
7398;SDS011;3740;50.700;7.184;2023-05-10T14:34:38;5.17;;;4.33;;
7398;SDS011;3740;50.700;7.184;2023-05-10T14:37:03;12.80;;;4.23;;
7398;SDS011;3740;50.700;7.184;2023-05-10T14:39:29;7.13;;;5.00;;
7398;SDS011;3740;50.700;7.184;2023-05-10T14:41:55;4.87;;;4.43;;
7398;SDS011;3740;50.700;7.184;2023-05-10T14:44:21;5.13;;;4.17;;
7398;SDS011;3740;50.700;7.184;2023-05-10T14:46:46;4.77;;;4.20;;
7398;SDS011;3740;50.700;7.184;2023-05-10T14:49:13;6.37;;;5.73;;
7398;SDS011;3740;50.700;7.184;2023-05-10T14:51:38;6.07;;;4.40;;
7398;SDS011;3740;50.700;7.184;2023-05-10T14:54:04;4.90;;;4.50;;
7398;SDS011;3740;50.700;7.184;2023-05-10T14:56:30;6.47;;;5.80;;
7398;SDS011;3740;50.700;7.184;2023-05-10T14:58:56;3.83;;;3.47;;
7398;SDS011;3740;50.700;7.184;2023-05-10T15:01:21;3.10;;;2.90;;
7398;SDS011;3740;50.700;7.184;2023-05-10T15:03:47;2.87;;;2.67;;
7398;SDS011;3740;50.700;7.184;2023-05-10T15:06:13;4.95;;;4.20;;
7398;SDS011;3740;50.700;7.184;2023-05-10T15:08:40;4.37;;;4.07;;
7398;SDS011;3740;50.700;7.184;2023-05-10T15:11:06;2.37;;;1.67;;
7398;SDS011;3740;50.700;7.184;2023-05-10T15:13:31;2.27;;;1.70;;
7398;SDS011;3740;50.700;7.184;2023-05-10T15:15:57;1.90;;;1.80;;
7398;SDS011;3740;50.700;7.184;2023-05-10T15:18:23;2.13;;;1.90;;
7398;SDS011;3740;50.700;7.184;2023-05-10T15:20:49;2.00;;;1.90;;
7398;SDS011;3740;50.700;7.184;2023-05-10T15:23:15;2.45;;;2.08;;
7398;SDS011;3740;50.700;7.184;2023-05-10T15:25:40;2.30;;;1.58;;
7398;SDS011;3740;50.700;7.184;2023-05-10T15:28:06;1.40;;;1.30;;
7398;SDS011;3740;50.700;7.184;2023-05-10T15:30:31;1.70;;;1.60;;
7398;SDS011;3740;50.700;7.184;2023-05-10T15:32:57;1.00;;;0.90;;
7398;SDS011;3740;50.700;7.184;2023-05-10T15:35:25;2.13;;;1.40;;
7398;SDS011;3740;50.700;7.184;2023-05-10T15:37:51;0.87;;;0.87;;
7398;SDS011;3740;50.700;7.184;2023-05-10T15:40:16;1.00;;;1.00;;
7398;SDS011;3740;50.700;7.184;2023-05-10T15:42:42;2.20;;;1.10;;
7398;SDS011;3740;50.700;7.184;2023-05-10T15:45:08;1.30;;;1.20;;